sensor_id;sensor_type;location;lat;lon;timestamp;pressure;altitude;pressure_sealevel;temperature;humidity
64460;BME280;50828;53.756;21.140;2023-04-04T00:03:07;100755.98;;;-0.12;59.08
64460;BME280;50828;53.756;21.140;2023-04-04T00:08:14;100757.00;;;-0.13;59.19
64460;BME280;50828;53.756;21.140;2023-04-04T00:13:22;100757.70;;;-0.13;59.24
64460;BME280;50828;53.756;21.140;2023-04-04T00:18:30;100754.03;;;-0.14;59.31
64460;BME280;50828;53.756;21.140;2023-04-04T00:23:38;100753.52;;;-0.14;59.34
64460;BME280;50828;53.756;21.140;2023-04-04T00:28:45;100753.88;;;-0.14;59.35
64460;BME280;50828;53.756;21.140;2023-04-04T00:33:52;100744.85;;;-0.15;59.45
64460;BME280;50828;53.756;21.140;2023-04-04T00:39:00;100743.81;;;-0.15;59.46
64460;BME280;50828;53.756;21.140;2023-04-04T00:44:07;100740.68;;;-0.16;59.73
64460;BME280;50828;53.756;21.140;2023-04-04T00:49:14;100739.30;;;-0.16;59.79
64460;BME280;50828;53.756;21.140;2023-04-04T00:54:21;100735.11;;;-0.17;59.78
64460;BME280;50828;53.756;21.140;2023-04-04T00:59:29;100732.50;;;-0.19;59.75
64460;BME280;50828;53.756;21.140;2023-04-04T01:04:37;100727.14;;;-0.19;59.83
64460;BME280;50828;53.756;21.140;2023-04-04T01:09:44;100722.45;;;-0.20;59.89
64460;BME280;50828;53.756;21.140;2023-04-04T01:14:52;100718.10;;;-0.22;59.85
64460;BME280;50828;53.756;21.140;2023-04-04T01:20:04;100716.19;;;-0.23;59.92
64460;BME280;50828;53.756;21.140;2023-04-04T01:30:35;100708.52;;;-0.26;60.12
64460;BME280;50828;53.756;21.140;2023-04-04T01:35:56;100707.46;;;-0.28;60.13
64460;BME280;50828;53.756;21.140;2023-04-04T01:41:09;100701.89;;;-0.30;60.08
64460;BME280;50828;53.756;21.140;2023-04-04T01:46:23;100702.02;;;-0.32;60.14
64460;BME280;50828;53.756;21.140;2023-04-04T01:51:31;100697.85;;;-0.34;60.15
64460;BME280;50828;53.756;21.140;2023-04-04T01:56:38;100690.39;;;-0.36;60.32
64460;BME280;50828;53.756;21.140;2023-04-04T02:01:46;100690.19;;;-0.37;60.27
64460;BME280;50828;53.756;21.140;2023-04-04T02:06:53;100687.03;;;-0.41;60.22
64460;BME280;50828;53.756;21.140;2023-04-04T02:12:02;100689.43;;;-0.43;60.34
64460;BME280;50828;53.756;21.140;2023-04-04T02:17:09;100682.83;;;-0.45;60.43
64460;BME280;50828;53.756;21.140;2023-04-04T02:22:16;100678.28;;;-0.47;60.45
64460;BME280;50828;53.756;21.140;2023-04-04T02:27:24;100679.28;;;-0.51;60.43
64460;BME280;50828;53.756;21.140;2023-04-04T02:32:31;100675.42;;;-0.55;60.55
64460;BME280;50828;53.756;21.140;2023-04-04T02:37:38;100673.98;;;-0.58;60.64
64460;BME280;50828;53.756;21.140;2023-04-04T02:42:46;100669.80;;;-0.60;60.66
64460;BME280;50828;53.756;21.140;2023-04-04T02:47:53;100669.41;;;-0.63;60.73
64460;BME280;50828;53.756;21.140;2023-04-04T02:53:04;100664.70;;;-0.66;60.70
64460;BME280;50828;53.756;21.140;2023-04-04T02:58:12;100660.52;;;-0.69;60.85
64460;BME280;50828;53.756;21.140;2023-04-04T03:03:19;100660.46;;;-0.71;60.72
64460;BME280;50828;53.756;21.140;2023-04-04T03:08:27;100658.32;;;-0.76;60.79
64460;BME280;50828;53.756;21.140;2023-04-04T03:13:36;100655.48;;;-0.81;60.91
64460;BME280;50828;53.756;21.140;2023-04-04T03:18:43;100652.32;;;-0.85;60.90
64460;BME280;50828;53.756;21.140;2023-04-04T03:23:51;100651.20;;;-0.91;60.83
64460;BME280;50828;53.756;21.140;2023-04-04T03:28:58;100654.75;;;-0.96;60.98
64460;BME280;50828;53.756;21.140;2023-04-04T03:34:08;100652.59;;;-1.01;61.06
64460;BME280;50828;53.756;21.140;2023-04-04T03:39:16;100652.36;;;-1.05;61.07
64460;BME280;50828;53.756;21.140;2023-04-04T03:44:23;100648.50;;;-1.09;61.35
64460;BME280;50828;53.756;21.140;2023-04-04T03:49:30;100643.92;;;-1.14;61.29
64460;BME280;50828;53.756;21.140;2023-04-04T03:54:38;100644.03;;;-1.17;61.29
64460;BME280;50828;53.756;21.140;2023-04-04T03:59:46;100638.45;;;-1.21;61.46
64460;BME280;50828;53.756;21.140;2023-04-04T04:04:53;100630.09;;;-1.24;61.57
64460;BME280;50828;53.756;21.140;2023-04-04T04:10:01;100629.85;;;-1.29;61.63
64460;BME280;50828;53.756;21.140;2023-04-04T04:15:10;100632.43;;;-1.30;61.61
64460;BME280;50828;53.756;21.140;2023-04-04T04:20:19;100634.11;;;-1.33;61.78
64460;BME280;50828;53.756;21.140;2023-04-04T04:25:28;100632.20;;;-1.34;61.81
64460;BME280;50828;53.756;21.140;2023-04-04T04:30:53;100629.78;;;-1.33;61.94
64460;BME280;50828;53.756;21.140;2023-04-04T04:36:02;100626.85;;;-1.33;61.93
64460;BME280;50828;53.756;21.140;2023-04-04T04:41:19;100622.21;;;-1.31;61.99
64460;BME280;50828;53.756;21.140;2023-04-04T04:46:27;100618.42;;;-1.31;61.87
64460;BME280;50828;53.756;21.140;2023-04-04T04:51:35;100617.77;;;-1.28;62.05
64460;BME280;50828;53.756;21.140;2023-04-04T04:56:43;100616.97;;;-1.24;62.01
64460;BME280;50828;53.756;21.140;2023-04-04T05:01:51;100623.80;;;-1.18;62.11
64460;BME280;50828;53.756;21.140;2023-04-04T05:06:58;100623.58;;;-1.12;62.22
64460;BME280;50828;53.756;21.140;2023-04-04T05:12:06;100623.35;;;-1.02;62.13
64460;BME280;50828;53.756;21.140;2023-04-04T05:17:19;100622.97;;;-0.93;62.28
64460;BME280;50828;53.756;21.140;2023-04-04T05:22:28;100627.48;;;-0.81;62.29
64460;BME280;50828;53.756;21.140;2023-04-04T05:27:36;100629.55;;;-0.69;62.38
64460;BME280;50828;53.756;21.140;2023-04-04T05:32:44;100627.30;;;-0.56;62.26
64460;BME280;50828;53.756;21.140;2023-04-04T05:37:58;100624.86;;;-0.43;62.23
64460;BME280;50828;53.756;21.140;2023-04-04T05:43:07;100628.35;;;-0.27;62.22
64460;BME280;50828;53.756;21.140;2023-04-04T05:48:23;100619.94;;;-0.07;62.22
64460;BME280;50828;53.756;21.140;2023-04-04T05:53:31;100609.56;;;0.10;62.01
64460;BME280;50828;53.756;21.140;2023-04-04T05:58:39;100625.79;;;0.41;62.02
64460;BME280;50828;53.756;21.140;2023-04-04T06:03:47;100620.08;;;0.60;61.96
64460;BME280;50828;53.756;21.140;2023-04-04T06:09:01;100627.70;;;0.80;61.92
64460;BME280;50828;53.756;21.140;2023-04-04T06:14:12;100623.67;;;0.97;61.96
64460;BME280;50828;53.756;21.140;2023-04-04T06:19:23;100619.62;;;1.15;61.92
64460;BME280;50828;53.756;21.140;2023-04-04T06:24:30;100616.23;;;1.30;61.74
64460;BME280;50828;53.756;21.140;2023-04-04T06:29:41;100601.89;;;1.38;61.75
64460;BME280;50828;53.756;21.140;2023-04-04T06:34:50;100612.39;;;1.58;61.66
64460;BME280;50828;53.756;21.140;2023-04-04T06:40:11;100609.84;;;1.70;61.48
64460;BME280;50828;53.756;21.140;2023-04-04T06:45:19;100610.22;;;1.80;61.20
64460;BME280;50828;53.756;21.140;2023-04-04T06:50:30;100611.64;;;1.88;61.20
64460;BME280;50828;53.756;21.140;2023-04-04T06:55:40;100605.22;;;1.94;61.22
64460;BME280;50828;53.756;21.140;2023-04-04T07:00:47;100605.77;;;1.98;61.16
64460;BME280;50828;53.756;21.140;2023-04-04T07:05:55;100596.92;;;2.05;61.23
64460;BME280;50828;53.756;21.140;2023-04-04T07:11:03;100594.15;;;2.12;61.40
64460;BME280;50828;53.756;21.140;2023-04-04T07:16:10;100589.82;;;2.20;61.11
64460;BME280;50828;53.756;21.140;2023-04-04T07:21:18;100592.09;;;2.24;61.17
64460;BME280;50828;53.756;21.140;2023-04-04T07:26:25;100591.05;;;2.25;61.16
64460;BME280;50828;53.756;21.140;2023-04-04T07:31:33;100596.61;;;2.25;61.06
64460;BME280;50828;53.756;21.140;2023-04-04T07:36:40;100591.04;;;2.28;61.06
64460;BME280;50828;53.756;21.140;2023-04-04T07:41:47;100592.09;;;2.31;61.20
64460;BME280;50828;53.756;21.140;2023-04-04T07:46:54;100590.18;;;2.34;61.03
64460;BME280;50828;53.756;21.140;2023-04-04T07:52:13;100583.77;;;2.34;61.16
64460;BME280;50828;53.756;21.140;2023-04-04T07:57:20;100581.15;;;2.35;61.18
64460;BME280;50828;53.756;21.140;2023-04-04T08:02:28;100581.85;;;2.36;61.28
64460;BME280;50828;53.756;21.140;2023-04-04T08:07:35;100580.80;;;2.37;61.00
64460;BME280;50828;53.756;21.140;2023-04-04T08:12:43;100587.57;;;2.37;61.09
64460;BME280;50828;53.756;21.140;2023-04-04T08:17:50;100591.77;;;2.37;61.03
64460;BME280;50828;53.756;21.140;2023-04-04T08:22:58;100583.60;;;2.39;60.86
64460;BME280;50828;53.756;21.140;2023-04-04T08:28:05;100575.25;;;2.43;60.89
64460;BME280;50828;53.756;21.140;2023-04-04T08:33:13;100568.46;;;2.48;60.48
64460;BME280;50828;53.756;21.140;2023-04-04T08:38:20;100561.86;;;2.53;60.38
64460;BME280;50828;53.756;21.140;2023-04-04T08:43:28;100556.47;;;2.63;60.42
64460;BME280;50828;53.756;21.140;2023-04-04T08:48:40;100551.41;;;2.74;60.33
64460;BME280;50828;53.756;21.140;2023-04-04T08:53:49;100547.91;;;2.85;60.20
64460;BME280;50828;53.756;21.140;2023-04-04T08:58:56;100554.85;;;2.99;60.04
64460;BME280;50828;53.756;21.140;2023-04-04T09:04:05;100557.09;;;3.05;59.65
64460;BME280;50828;53.756;21.140;2023-04-04T09:09:15;100555.19;;;3.06;59.59
64460;BME280;50828;53.756;21.140;2023-04-04T09:14:25;100554.64;;;3.10;59.70
64460;BME280;50828;53.756;21.140;2023-04-04T09:19:33;100559.87;;;3.12;59.92
64460;BME280;50828;53.756;21.140;2023-04-04T09:24:41;100556.55;;;3.10;59.81
64460;BME280;50828;53.756;21.140;2023-04-04T09:29:50;100552.91;;;3.07;59.83
64460;BME280;50828;53.756;21.140;2023-04-04T09:34:58;100550.30;;;3.08;59.95
64460;BME280;50828;53.756;21.140;2023-04-04T09:40:07;100548.55;;;3.11;60.13
64460;BME280;50828;53.756;21.140;2023-04-04T09:45:16;100554.65;;;3.15;59.75
64460;BME280;50828;53.756;21.140;2023-04-04T09:50:38;100554.11;;;3.15;59.83
64460;BME280;50828;53.756;21.140;2023-04-04T09:55:52;100549.95;;;3.11;59.64
64460;BME280;50828;53.756;21.140;2023-04-04T10:01:02;100550.99;;;3.12;59.61
64460;BME280;50828;53.756;21.140;2023-04-04T10:06:11;100547.67;;;3.14;59.85
64460;BME280;50828;53.756;21.140;2023-04-04T10:11:30;100544.02;;;3.18;59.89
64460;BME280;50828;53.756;21.140;2023-04-04T10:16:42;100535.80;;;3.26;59.70
64460;BME280;50828;53.756;21.140;2023-04-04T10:21:50;100525.33;;;3.34;59.60
64460;BME280;50828;53.756;21.140;2023-04-04T10:26:58;100524.95;;;3.42;59.16
64460;BME280;50828;53.756;21.140;2023-04-04T10:32:11;100526.48;;;3.47;59.25
64460;BME280;50828;53.756;21.140;2023-04-04T10:37:25;100528.59;;;3.48;58.80
64460;BME280;50828;53.756;21.140;2023-04-04T10:42:40;100528.42;;;3.44;58.59
64460;BME280;50828;53.756;21.140;2023-04-04T10:47:51;100516.30;;;3.29;58.51
64460;BME280;50828;53.756;21.140;2023-04-04T10:53:00;100526.58;;;3.28;58.73
64460;BME280;50828;53.756;21.140;2023-04-04T10:58:09;100529.89;;;3.23;58.78
64460;BME280;50828;53.756;21.140;2023-04-04T11:03:17;100527.99;;;3.20;58.84
64460;BME280;50828;53.756;21.140;2023-04-04T11:08:27;100514.95;;;3.20;59.03
64460;BME280;50828;53.756;21.140;2023-04-04T11:13:36;100510.06;;;3.24;58.94
64460;BME280;50828;53.756;21.140;2023-04-04T11:18:50;100502.36;;;3.31;58.82
64460;BME280;50828;53.756;21.140;2023-04-04T11:24:18;100492.23;;;3.39;58.96
64460;BME280;50828;53.756;21.140;2023-04-04T11:29:51;100497.21;;;3.51;58.85
64460;BME280;50828;53.756;21.140;2023-04-04T11:34:59;100495.79;;;3.59;58.16
64460;BME280;50828;53.756;21.140;2023-04-04T11:40:12;100492.13;;;3.60;58.00
64460;BME280;50828;53.756;21.140;2023-04-04T11:45:24;100486.73;;;3.60;57.89
64460;BME280;50828;53.756;21.140;2023-04-04T11:50:37;100485.14;;;3.62;57.98
64460;BME280;50828;53.756;21.140;2023-04-04T11:55:50;100488.25;;;3.66;57.77
64460;BME280;50828;53.756;21.140;2023-04-04T12:00:56;100485.09;;;3.69;57.53
64460;BME280;50828;53.756;21.140;2023-04-04T12:06:04;100479.70;;;3.67;57.52
64460;BME280;50828;53.756;21.140;2023-04-04T12:11:16;100477.10;;;3.66;57.43
64460;BME280;50828;53.756;21.140;2023-04-04T12:16:28;100475.88;;;3.67;57.63
64460;BME280;50828;53.756;21.140;2023-04-04T12:21:37;100473.10;;;3.67;57.42
64460;BME280;50828;53.756;21.140;2023-04-04T12:26:47;100469.06;;;3.71;57.63
64460;BME280;50828;53.756;21.140;2023-04-04T12:31:56;100471.66;;;3.74;57.31
64460;BME280;50828;53.756;21.140;2023-04-04T12:37:07;100471.98;;;3.77;57.20
64460;BME280;50828;53.756;21.140;2023-04-04T12:42:21;100470.57;;;3.80;56.89
64460;BME280;50828;53.756;21.140;2023-04-04T12:47:31;100467.07;;;3.82;56.77
64460;BME280;50828;53.756;21.140;2023-04-04T12:52:40;100464.26;;;3.86;56.82
64460;BME280;50828;53.756;21.140;2023-04-04T12:57:50;100471.55;;;3.89;56.68
64460;BME280;50828;53.756;21.140;2023-04-04T13:02:57;100473.99;;;3.89;57.04
64460;BME280;50828;53.756;21.140;2023-04-04T13:08:09;100468.80;;;3.84;56.87
64460;BME280;50828;53.756;21.140;2023-04-04T13:13:33;100465.89;;;3.77;57.17
64460;BME280;50828;53.756;21.140;2023-04-04T13:18:42;100459.31;;;3.70;57.33
64460;BME280;50828;53.756;21.140;2023-04-04T13:23:51;100462.45;;;3.67;57.56
64460;BME280;50828;53.756;21.140;2023-04-04T13:28:59;100461.94;;;3.69;57.62
64460;BME280;50828;53.756;21.140;2023-04-04T13:34:07;100464.69;;;3.73;58.01
64460;BME280;50828;53.756;21.140;2023-04-04T13:39:15;100469.19;;;3.78;57.86
64460;BME280;50828;53.756;21.140;2023-04-04T13:44:24;100463.76;;;3.83;57.83
64460;BME280;50828;53.756;21.140;2023-04-04T13:49:32;100461.81;;;3.86;57.93
64460;BME280;50828;53.756;21.140;2023-04-04T13:54:40;100463.36;;;3.90;57.64
64460;BME280;50828;53.756;21.140;2023-04-04T13:59:48;100460.00;;;3.97;57.63
64460;BME280;50828;53.756;21.140;2023-04-04T14:04:57;100462.57;;;4.02;57.54
64460;BME280;50828;53.756;21.140;2023-04-04T14:10:05;100468.83;;;4.03;57.52
64460;BME280;50828;53.756;21.140;2023-04-04T14:15:13;100467.48;;;3.96;57.51
64460;BME280;50828;53.756;21.140;2023-04-04T14:20:21;100465.50;;;3.83;57.68
64460;BME280;50828;53.756;21.140;2023-04-04T14:25:30;100464.36;;;3.69;57.89
64460;BME280;50828;53.756;21.140;2023-04-04T14:30:38;100464.80;;;3.57;58.01
64460;BME280;50828;53.756;21.140;2023-04-04T14:35:47;100466.77;;;3.47;57.98
64460;BME280;50828;53.756;21.140;2023-04-04T14:40:56;100466.81;;;3.38;57.98
64460;BME280;50828;53.756;21.140;2023-04-04T14:46:08;100467.55;;;3.30;58.00
64460;BME280;50828;53.756;21.140;2023-04-04T14:51:16;100470.19;;;3.21;58.07
64460;BME280;50828;53.756;21.140;2023-04-04T14:56:24;100473.20;;;3.14;58.06
64460;BME280;50828;53.756;21.140;2023-04-04T15:01:31;100471.48;;;3.05;58.17
64460;BME280;50828;53.756;21.140;2023-04-04T15:06:39;100461.11;;;2.90;58.37
64460;BME280;50828;53.756;21.140;2023-04-04T15:11:49;100474.66;;;2.91;58.58
64460;BME280;50828;53.756;21.140;2023-04-04T15:16:57;100476.59;;;2.85;58.91
64460;BME280;50828;53.756;21.140;2023-04-04T15:22:06;100472.95;;;2.80;59.09
64460;BME280;50828;53.756;21.140;2023-04-04T15:27:14;100473.65;;;2.76;59.27
64460;BME280;50828;53.756;21.140;2023-04-04T15:32:23;100471.77;;;2.72;59.21
64460;BME280;50828;53.756;21.140;2023-04-04T15:37:31;100469.16;;;2.67;59.42
64460;BME280;50828;53.756;21.140;2023-04-04T15:42:40;100457.53;;;2.58;59.93
64460;BME280;50828;53.756;21.140;2023-04-04T15:47:48;100468.48;;;2.61;60.10
64460;BME280;50828;53.756;21.140;2023-04-04T15:52:57;100469.70;;;2.59;59.94
64460;BME280;50828;53.756;21.140;2023-04-04T15:58:05;100472.30;;;2.56;60.42
64460;BME280;50828;53.756;21.140;2023-04-04T16:03:13;100476.49;;;2.52;60.59
64460;BME280;50828;53.756;21.140;2023-04-04T16:08:22;100477.02;;;2.48;60.67
64460;BME280;50828;53.756;21.140;2023-04-04T16:13:29;100479.45;;;2.43;60.71
64460;BME280;50828;53.756;21.140;2023-04-04T16:18:38;100479.27;;;2.39;60.91
64460;BME280;50828;53.756;21.140;2023-04-04T16:23:46;100478.77;;;2.36;60.90
64460;BME280;50828;53.756;21.140;2023-04-04T16:28:53;100480.68;;;2.31;60.90
64460;BME280;50828;53.756;21.140;2023-04-04T16:34:01;100478.94;;;2.27;60.86
64460;BME280;50828;53.756;21.140;2023-04-04T16:39:09;100476.69;;;2.22;60.88
64460;BME280;50828;53.756;21.140;2023-04-04T16:44:18;100473.38;;;2.18;60.77
64460;BME280;50828;53.756;21.140;2023-04-04T16:49:27;100472.88;;;2.14;60.95
64460;BME280;50828;53.756;21.140;2023-04-04T16:54:35;100470.95;;;2.10;60.78
64460;BME280;50828;53.756;21.140;2023-04-04T16:59:44;100475.31;;;2.06;60.99
64460;BME280;50828;53.756;21.140;2023-04-04T17:04:53;100476.34;;;2.01;61.03
64460;BME280;50828;53.756;21.140;2023-04-04T17:10:02;100471.48;;;1.96;60.87
64460;BME280;50828;53.756;21.140;2023-04-04T17:15:12;100468.86;;;1.91;61.05
64460;BME280;50828;53.756;21.140;2023-04-04T17:20:22;100470.24;;;1.84;61.14
64460;BME280;50828;53.756;21.140;2023-04-04T17:25:33;100467.11;;;1.77;61.18
64460;BME280;50828;53.756;21.140;2023-04-04T17:30:41;100465.36;;;1.69;61.23
64460;BME280;50828;53.756;21.140;2023-04-04T17:35:50;100469.50;;;1.64;61.36
64460;BME280;50828;53.756;21.140;2023-04-04T17:40:59;100471.41;;;1.57;61.26
64460;BME280;50828;53.756;21.140;2023-04-04T17:46:09;100474.52;;;1.51;61.36
64460;BME280;50828;53.756;21.140;2023-04-04T17:51:18;100475.54;;;1.43;61.49
64460;BME280;50828;53.756;21.140;2023-04-04T17:56:27;100477.44;;;1.37;61.43
64460;BME280;50828;53.756;21.140;2023-04-04T18:01:38;100478.45;;;1.30;61.54
64460;BME280;50828;53.756;21.140;2023-04-04T18:06:46;100478.77;;;1.22;61.55
64460;BME280;50828;53.756;21.140;2023-04-04T18:11:54;100480.48;;;1.15;61.64
64460;BME280;50828;53.756;21.140;2023-04-04T18:17:02;100482.52;;;1.07;61.59
64460;BME280;50828;53.756;21.140;2023-04-04T18:22:11;100487.17;;;1.00;61.32
64460;BME280;50828;53.756;21.140;2023-04-04T18:27:19;100496.14;;;0.92;61.58
64460;BME280;50828;53.756;21.140;2023-04-04T18:32:27;100495.95;;;0.85;61.72
64460;BME280;50828;53.756;21.140;2023-04-04T18:37:36;100493.30;;;0.78;61.80
64460;BME280;50828;53.756;21.140;2023-04-04T18:42:44;100493.79;;;0.72;61.99
64460;BME280;50828;53.756;21.140;2023-04-04T18:47:51;100489.58;;;0.66;61.92
64460;BME280;50828;53.756;21.140;2023-04-04T18:52:59;100488.86;;;0.61;62.09
64460;BME280;50828;53.756;21.140;2023-04-04T18:58:07;100488.66;;;0.55;62.22
64460;BME280;50828;53.756;21.140;2023-04-04T19:03:15;100486.20;;;0.50;62.29
64460;BME280;50828;53.756;21.140;2023-04-04T19:08:24;100490.65;;;0.44;62.20
64460;BME280;50828;53.756;21.140;2023-04-04T19:13:33;100492.16;;;0.39;62.40
64460;BME280;50828;53.756;21.140;2023-04-04T19:18:41;100494.05;;;0.33;62.45
64460;BME280;50828;53.756;21.140;2023-04-04T19:23:49;100491.91;;;0.26;62.29
64460;BME280;50828;53.756;21.140;2023-04-04T19:28:58;100489.78;;;0.19;61.93
64460;BME280;50828;53.756;21.140;2023-04-04T19:34:07;100490.58;;;0.12;61.85
64460;BME280;50828;53.756;21.140;2023-04-04T19:39:19;100490.00;;;0.05;61.76
64460;BME280;50828;53.756;21.140;2023-04-04T19:44:30;100491.84;;;-0.02;61.74
64460;BME280;50828;53.756;21.140;2023-04-04T19:49:38;100488.49;;;-0.08;61.84
64460;BME280;50828;53.756;21.140;2023-04-04T19:54:47;100488.77;;;-0.15;61.71
64460;BME280;50828;53.756;21.140;2023-04-04T20:00:06;100486.46;;;-0.22;61.71
64460;BME280;50828;53.756;21.140;2023-04-04T20:11:00;100478.17;;;-0.38;61.56
64460;BME280;50828;53.756;21.140;2023-04-04T20:16:10;100477.58;;;-0.46;61.44
64460;BME280;50828;53.756;21.140;2023-04-04T20:21:20;100475.23;;;-0.53;61.32
64460;BME280;50828;53.756;21.140;2023-04-04T20:26:49;100475.16;;;-0.61;61.38
64460;BME280;50828;53.756;21.140;2023-04-04T20:32:01;100474.36;;;-0.70;61.56
64460;BME280;50828;53.756;21.140;2023-04-04T20:37:12;100473.94;;;-0.77;61.49
64460;BME280;50828;53.756;21.140;2023-04-04T20:42:38;100471.97;;;-0.83;61.41
64460;BME280;50828;53.756;21.140;2023-04-04T20:47:47;100474.29;;;-0.91;61.37
64460;BME280;50828;53.756;21.140;2023-04-04T20:52:57;100467.11;;;-0.99;61.43
64460;BME280;50828;53.756;21.140;2023-04-04T20:58:07;100467.89;;;-1.06;61.37
64460;BME280;50828;53.756;21.140;2023-04-04T21:03:28;100467.11;;;-1.12;61.35
64460;BME280;50828;53.756;21.140;2023-04-04T21:08:41;100464.40;;;-1.20;61.39
64460;BME280;50828;53.756;21.140;2023-04-04T21:13:50;100464.48;;;-1.27;61.35
64460;BME280;50828;53.756;21.140;2023-04-04T21:18:59;100458.54;;;-1.33;61.41
64460;BME280;50828;53.756;21.140;2023-04-04T21:24:08;100457.23;;;-1.40;61.50
64460;BME280;50828;53.756;21.140;2023-04-04T21:29:22;100455.60;;;-1.46;61.54
64460;BME280;50828;53.756;21.140;2023-04-04T21:34:31;100450.84;;;-1.53;61.32
64460;BME280;50828;53.756;21.140;2023-04-04T21:39:41;100449.69;;;-1.60;61.36
64460;BME280;50828;53.756;21.140;2023-04-04T21:44:50;100453.21;;;-1.68;61.21
64460;BME280;50828;53.756;21.140;2023-04-04T21:49:57;100450.48;;;-1.76;61.25
64460;BME280;50828;53.756;21.140;2023-04-04T21:55:06;100447.96;;;-1.83;61.39
64460;BME280;50828;53.756;21.140;2023-04-04T22:00:15;100448.34;;;-1.91;61.42
64460;BME280;50828;53.756;21.140;2023-04-04T22:05:24;100447.73;;;-1.98;61.58
64460;BME280;50828;53.756;21.140;2023-04-04T22:10:44;100446.41;;;-2.05;61.77
64460;BME280;50828;53.756;21.140;2023-04-04T22:15:55;100444.06;;;-2.11;61.80
64460;BME280;50828;53.756;21.140;2023-04-04T22:21:04;100440.30;;;-2.19;61.97
64460;BME280;50828;53.756;21.140;2023-04-04T22:26:14;100440.92;;;-2.23;61.94
64460;BME280;50828;53.756;21.140;2023-04-04T22:31:25;100440.34;;;-2.27;61.92
64460;BME280;50828;53.756;21.140;2023-04-04T22:36:32;100435.96;;;-2.31;61.95
64460;BME280;50828;53.756;21.140;2023-04-04T22:41:44;100433.64;;;-2.35;61.81
64460;BME280;50828;53.756;21.140;2023-04-04T22:46:52;100430.10;;;-2.41;61.82
64460;BME280;50828;53.756;21.140;2023-04-04T22:52:03;100427.93;;;-2.47;61.72
64460;BME280;50828;53.756;21.140;2023-04-04T22:57:12;100428.15;;;-2.54;61.81
64460;BME280;50828;53.756;21.140;2023-04-04T23:02:21;100426.13;;;-2.61;61.62
64460;BME280;50828;53.756;21.140;2023-04-04T23:07:29;100429.65;;;-2.67;61.75
64460;BME280;50828;53.756;21.140;2023-04-04T23:12:38;100432.80;;;-2.72;61.81
64460;BME280;50828;53.756;21.140;2023-04-04T23:17:46;100436.15;;;-2.78;62.07
64460;BME280;50828;53.756;21.140;2023-04-04T23:22:54;100434.31;;;-2.84;62.14
64460;BME280;50828;53.756;21.140;2023-04-04T23:28:03;100429.91;;;-2.88;62.17
64460;BME280;50828;53.756;21.140;2023-04-04T23:33:12;100425.86;;;-2.93;62.30
64460;BME280;50828;53.756;21.140;2023-04-04T23:38:20;100421.30;;;-2.97;62.21
64460;BME280;50828;53.756;21.140;2023-04-04T23:43:28;100418.31;;;-3.00;62.54
64460;BME280;50828;53.756;21.140;2023-04-04T23:48:35;100415.83;;;-3.04;62.46
64460;BME280;50828;53.756;21.140;2023-04-04T23:53:43;100414.23;;;-3.06;62.57
64460;BME280;50828;53.756;21.140;2023-04-04T23:58:50;100415.40;;;-3.08;62.42
